Time;durP1;ratioP1;P1;durP2;ratioP2;P2;SDS_P1;SDS_P2;PMS_P1;PMS_P2;Temp;Humidity;BMP_temperature;BMP_pressure;BME280_temperature;BME280_humidity;BME280_pressure;Samples;Min_cycle;Max_cycle;Signal;HPM_P1;HPM_P2
2022/03/29 00:01:54;;;;;;;;;;;13.00;99.90;;;;;;5093628;28;19912;-81
2022/03/29 00:04:20;;;;;;;;;;;13.00;99.90;;;;;;5092738;28;20070;-82
2022/03/29 00:06:45;;;;;;;;;;;13.00;99.90;;;;;;5096756;28;19930;-81
2022/03/29 00:09:11;;;;;;;;;;;12.90;99.90;;;;;;5096192;28;19923;-82
2022/03/29 00:11:36;;;;;;;;;;;12.90;99.90;;;;;;5097618;28;19908;-82
2022/03/29 00:14:06;;;;;;;;;;;12.90;99.90;;;;;;5097227;28;19950;-81
2022/03/29 00:16:32;;;;;;;;;;;12.90;99.90;;;;;;5091083;28;19919;-82
2022/03/29 00:18:57;;;;;;;;;;;12.90;99.90;;;;;;5096502;28;19912;-82
2022/03/29 00:21:23;;;;;;;;;;;12.90;99.90;;;;;;5127320;27;19931;-81
2022/03/29 00:23:48;;;;;;;;;;;12.80;99.90;;;;;;5092897;28;20308;-80
2022/03/29 00:26:14;;;;;;;;;;;12.80;99.90;;;;;;5092516;28;19920;-81
2022/03/29 00:28:40;;;;;;;;;;;12.80;99.90;;;;;;5092818;28;19923;-82
2022/03/29 00:31:05;;;;;;;;;;;12.80;99.90;;;;;;5090207;28;21381;-80
2022/03/29 00:33:30;;;;;;;;;;;12.70;99.90;;;;;;5093045;28;19916;-79
2022/03/29 00:35:56;;;;;;;;;;;12.70;99.90;;;;;;5093132;28;19916;-79
2022/03/29 00:38:22;;;;;;;;;;;12.70;99.90;;;;;;5092960;28;19912;-80
2022/03/29 00:40:47;;;;;;;;;;;12.60;99.90;;;;;;5101224;28;19912;-81
2022/03/29 00:43:13;;;;;;;;;;;12.60;99.90;;;;;;5096815;28;19973;-82
2022/03/29 00:45:38;;;;;;;;;;;12.60;99.90;;;;;;5099176;28;19912;-81
2022/03/29 00:48:08;;;;;;;;;;;12.50;99.90;;;;;;5090097;28;19967;-81
2022/03/29 00:50:35;;;;;;;;;;;12.50;99.90;;;;;;5097393;28;19912;-82
2022/03/29 00:53:00;;;;;;;;;;;12.50;99.90;;;;;;5096677;28;19947;-81
2022/03/29 00:55:26;;;;;;;;;;;12.50;99.90;;;;;;5097991;28;19920;-82
2022/03/29 00:57:52;;;;;;;;;;;12.50;99.90;;;;;;5099322;28;20395;-82
2022/03/29 01:00:18;;;;;;;;;;;12.40;99.90;;;;;;5098616;28;20392;-82
2022/03/29 01:02:44;;;;;;;;;;;12.40;99.90;;;;;;5097071;28;19938;-83
2022/03/29 01:05:10;;;;;;;;;;;12.40;99.90;;;;;;5090975;28;19916;-81
2022/03/29 01:07:36;;;;;;;;;;;12.30;99.90;;;;;;5097091;28;19916;-80
2022/03/29 01:10:02;;;;;;;;;;;12.30;99.90;;;;;;5096514;28;19916;-79
2022/03/29 01:12:31;;;;;;;;;;;12.30;99.90;;;;;;5095989;28;19916;-82
2022/03/29 01:14:57;;;;;;;;;;;12.30;99.90;;;;;;5097411;28;19919;-79
2022/03/29 01:17:41;;;;;;;;;;;12.30;99.90;;;;;;5096316;28;19912;-79
2022/03/29 01:20:13;;;;;;;;;;;12.20;99.90;;;;;;5095028;28;19908;-82
2022/03/29 01:22:41;;;;;;;;;;;12.30;99.90;;;;;;5090521;28;19919;-81
2022/03/29 01:25:08;;;;;;;;;;;12.20;99.90;;;;;;5095610;28;20471;-78
2022/03/29 01:27:34;;;;;;;;;;;12.20;99.90;;;;;;5094514;28;20324;-80
2022/03/29 01:30:00;;;;;;;;;;;12.20;99.90;;;;;;5092892;28;19918;-80
2022/03/29 01:32:29;;;;;;;;;;;12.20;99.90;;;;;;5094228;28;19919;-82
2022/03/29 01:34:55;;;;;;;;;;;12.20;99.90;;;;;;5093873;28;19916;-82
2022/03/29 01:37:21;;;;;;;;;;;12.20;99.90;;;;;;5094568;28;19916;-81
2022/03/29 01:39:46;;;;;;;;;;;12.20;99.90;;;;;;5093127;28;19912;-81
2022/03/29 01:42:12;;;;;;;;;;;12.10;99.90;;;;;;5094338;28;19927;-79
2022/03/29 01:44:37;;;;;;;;;;;12.10;99.90;;;;;;5094611;28;19919;-81
2022/03/29 01:47:03;;;;;;;;;;;12.10;99.90;;;;;;5094303;28;19957;-82
2022/03/29 01:49:28;;;;;;;;;;;12.10;99.90;;;;;;5094038;28;20277;-82
2022/03/29 01:51:55;;;;;;;;;;;12.10;99.90;;;;;;5094821;28;19919;-81
2022/03/29 01:54:21;;;;;;;;;;;12.10;99.90;;;;;;5094163;28;19955;-81
2022/03/29 01:56:46;;;;;;;;;;;12.10;99.90;;;;;;5094727;28;19919;-81
2022/03/29 01:59:12;;;;;;;;;;;12.10;99.90;;;;;;5092622;28;19920;-81
2022/03/29 02:01:38;;;;;;;;;;;12.00;99.90;;;;;;5089587;28;19999;-81
2022/03/29 02:04:04;;;;;;;;;;;12.00;99.90;;;;;;5095130;28;19922;-82
2022/03/29 02:06:29;;;;;;;;;;;12.00;99.90;;;;;;5093285;28;19912;-79
2022/03/29 02:08:56;;;;;;;;;;;12.00;99.90;;;;;;5093675;28;19930;-79
2022/03/29 02:11:23;;;;;;;;;;;11.90;99.90;;;;;;5093683;28;19921;-81
2022/03/29 02:13:48;;;;;;;;;;;11.90;99.90;;;;;;5097200;28;19918;-82
2022/03/29 02:16:14;;;;;;;;;;;11.90;99.90;;;;;;5098510;28;19951;-82
2022/03/29 02:18:39;;;;;;;;;;;11.90;99.90;;;;;;5099168;28;19912;-81
2022/03/29 02:21:05;;;;;;;;;;;11.90;99.90;;;;;;5094386;28;20346;-82
2022/03/29 02:23:30;;;;;;;;;;;11.90;99.90;;;;;;5128932;27;19912;-81
2022/03/29 02:25:56;;;;;;;;;;;11.80;99.90;;;;;;5097414;28;19916;-81
2022/03/29 02:28:21;;;;;;;;;;;11.80;99.90;;;;;;5096262;28;20526;-80
2022/03/29 02:30:47;;;;;;;;;;;11.80;99.90;;;;;;5096870;28;19968;-81
2022/03/29 02:33:12;;;;;;;;;;;11.80;99.90;;;;;;5095523;28;20459;-81
2022/03/29 02:35:38;;;;;;;;;;;11.80;99.90;;;;;;5098806;28;19960;-82
2022/03/29 02:38:03;;;;;;;;;;;11.80;99.90;;;;;;5089998;28;19912;-82
2022/03/29 02:40:29;;;;;;;;;;;11.80;99.90;;;;;;5096209;28;19965;-81
2022/03/29 02:42:57;;;;;;;;;;;11.80;99.90;;;;;;5096487;28;19915;-79
2022/03/29 02:45:24;;;;;;;;;;;11.80;99.90;;;;;;5095217;28;19989;-83
2022/03/29 02:47:51;;;;;;;;;;;11.80;99.90;;;;;;5095530;28;19916;-80
2022/03/29 02:50:18;;;;;;;;;;;11.80;99.90;;;;;;5094956;28;20011;-82
2022/03/29 02:52:43;;;;;;;;;;;11.80;99.90;;;;;;5097365;28;20004;-82
2022/03/29 02:55:09;;;;;;;;;;;11.70;99.90;;;;;;5092947;28;20364;-80
2022/03/29 02:57:34;;;;;;;;;;;11.70;99.90;;;;;;5096342;28;20221;-79
2022/03/29 03:00:00;;;;;;;;;;;11.60;99.90;;;;;;5095373;28;20364;-81
2022/03/29 03:02:25;;;;;;;;;;;11.60;99.90;;;;;;5096213;28;20279;-82
2022/03/29 03:04:51;;;;;;;;;;;11.60;99.90;;;;;;5095476;28;19923;-79
2022/03/29 03:07:17;;;;;;;;;;;11.50;99.90;;;;;;5092720;28;19916;-81
2022/03/29 03:09:42;;;;;;;;;;;11.60;99.90;;;;;;5095779;28;19912;-82
2022/03/29 03:12:08;;;;;;;;;;;11.50;99.90;;;;;;5094980;28;19913;-81
2022/03/29 03:14:33;;;;;;;;;;;11.50;99.90;;;;;;5097095;28;19912;-81
2022/03/29 03:16:59;;;;;;;;;;;11.50;99.90;;;;;;5098732;28;20342;-79
2022/03/29 03:19:24;;;;;;;;;;;11.50;99.90;;;;;;5098237;28;19916;-81
2022/03/29 03:21:50;;;;;;;;;;;11.40;99.90;;;;;;5096190;28;19912;-80
2022/03/29 03:24:16;;;;;;;;;;;11.40;99.90;;;;;;5097779;28;20360;-82
2022/03/29 03:26:41;;;;;;;;;;;11.30;99.90;;;;;;5095771;28;19927;-81
2022/03/29 03:29:07;;;;;;;;;;;11.20;1.00;;;;;;5098840;28;19916;-81
2022/03/29 03:31:32;;;;;;;;;;;11.20;1.00;;;;;;5098138;28;19951;-81
2022/03/29 03:33:58;;;;;;;;;;;11.10;1.00;;;;;;5098570;28;19920;-81
2022/03/29 03:36:23;;;;;;;;;;;11.00;1.00;;;;;;5095779;28;20042;-81
2022/03/29 03:38:49;;;;;;;;;;;11.00;1.00;;;;;;5098809;28;19912;-81
2022/03/29 03:41:14;;;;;;;;;;;11.00;1.00;;;;;;5097509;28;20332;-81
2022/03/29 03:43:40;;;;;;;;;;;11.00;1.00;;;;;;5096777;28;19935;-80
2022/03/29 03:46:05;;;;;;;;;;;11.00;1.00;;;;;;5099712;28;19919;-82
2022/03/29 03:48:31;;;;;;;;;;;11.00;1.00;;;;;;5101003;28;20287;-81
2022/03/29 03:50:56;;;;;;;;;;;11.00;1.00;;;;;;5099900;28;19912;-81
2022/03/29 03:53:21;;;;;;;;;;;11.00;1.00;;;;;;5097170;28;19970;-80
2022/03/29 03:55:47;;;;;;;;;;;11.00;1.00;;;;;;5102353;28;20291;-79
2022/03/29 03:58:13;;;;;;;;;;;11.00;1.00;;;;;;5099503;28;19920;-82
2022/03/29 04:00:39;;;;;;;;;;;11.00;1.00;;;;;;5095102;28;20312;-80
2022/03/29 04:03:05;;;;;;;;;;;10.90;1.00;;;;;;5099257;28;19912;-82
2022/03/29 04:05:31;;;;;;;;;;;10.90;1.00;;;;;;5098979;28;19913;-82
2022/03/29 04:07:57;;;;;;;;;;;10.80;1.00;;;;;;5100834;28;19950;-79
2022/03/29 04:10:22;;;;;;;;;;;10.80;1.00;;;;;;5129856;27;19928;-82
2022/03/29 04:12:48;;;;;;;;;;;10.80;1.00;;;;;;5100435;28;19926;-82
2022/03/29 04:15:13;;;;;;;;;;;10.80;1.00;;;;;;5098397;28;19916;-83
2022/03/29 04:17:39;;;;;;;;;;;10.80;1.00;;;;;;5100222;28;19912;-82
2022/03/29 04:20:05;;;;;;;;;;;10.80;1.00;;;;;;5100158;28;20421;-81
2022/03/29 04:22:30;;;;;;;;;;;10.80;1.00;;;;;;5100195;28;19963;-82
2022/03/29 04:24:56;;;;;;;;;;;10.80;1.00;;;;;;5100073;28;20008;-81
2022/03/29 04:27:21;;;;;;;;;;;10.70;1.00;;;;;;5095127;28;19923;-82
2022/03/29 04:29:46;;;;;;;;;;;10.60;1.00;;;;;;5097711;28;20340;-82
2022/03/29 04:32:12;;;;;;;;;;;10.60;7.10;;;;;;5093722;28;19920;-81
2022/03/29 04:34:37;;;;;;;;;;;10.50;51.20;;;;;;5093270;28;19958;-81
2022/03/29 04:37:03;;;;;;;;;;;10.50;99.90;;;;;;5095261;28;20125;-81
2022/03/29 04:39:30;;;;;;;;;;;10.50;99.90;;;;;;5092171;28;19924;-81
2022/03/29 04:41:57;;;;;;;;;;;10.50;99.90;;;;;;5089865;28;20011;-82
2022/03/29 04:44:22;;;;;;;;;;;10.50;99.90;;;;;;5094421;28;19985;-81
2022/03/29 04:46:47;;;;;;;;;;;10.50;99.90;;;;;;5095987;28;19912;-81
2022/03/29 04:49:13;;;;;;;;;;;10.50;99.90;;;;;;5095553;28;20195;-81
2022/03/29 04:51:38;;;;;;;;;;;10.50;99.90;;;;;;5096556;28;19913;-82
2022/03/29 04:54:04;;;;;;;;;;;10.50;98.50;;;;;;5092485;28;19916;-81
2022/03/29 04:56:29;;;;;;;;;;;10.50;89.90;;;;;;5095851;28;20002;-80
2022/03/29 04:58:55;;;;;;;;;;;10.40;73.30;;;;;;5092439;28;19912;-82
2022/03/29 05:01:21;;;;;;;;;;;10.40;48.00;;;;;;5094096;28;19916;-81
2022/03/29 05:03:46;;;;;;;;;;;10.30;58.20;;;;;;5095130;28;20402;-79
2022/03/29 05:06:12;;;;;;;;;;;10.20;99.90;;;;;;5093866;28;19920;-81
2022/03/29 05:08:37;;;;;;;;;;;10.20;99.90;;;;;;5094909;28;19916;-81
2022/03/29 05:11:02;;;;;;;;;;;10.10;99.90;;;;;;5094083;28;19919;-81
2022/03/29 05:13:28;;;;;;;;;;;10.00;99.90;;;;;;5095569;28;19978;-80
2022/03/29 05:15:55;;;;;;;;;;;10.00;99.90;;;;;;5095089;28;20026;-81
2022/03/29 05:18:20;;;;;;;;;;;10.00;99.90;;;;;;5095346;28;19916;-82
2022/03/29 05:20:46;;;;;;;;;;;9.90;1.00;;;;;;5099693;28;19913;-82
2022/03/29 05:23:11;;;;;;;;;;;9.90;1.00;;;;;;5097633;28;20318;-82
2022/03/29 05:25:37;;;;;;;;;;;9.90;1.00;;;;;;5100097;28;19912;-82
2022/03/29 05:28:03;;;;;;;;;;;9.90;1.00;;;;;;5100668;28;19939;-82
2022/03/29 05:30:28;;;;;;;;;;;9.90;1.00;;;;;;5099033;28;20300;-80
2022/03/29 05:32:57;;;;;;;;;;;10.00;1.00;;;;;;5097272;28;19916;-82
2022/03/29 05:35:25;;;;;;;;;;;10.00;1.00;;;;;;5095753;28;19961;-84
2022/03/29 05:37:51;;;;;;;;;;;10.00;1.00;;;;;;5092822;28;20398;-83
2022/03/29 05:40:16;;;;;;;;;;;10.00;1.00;;;;;;5097607;28;19975;-84
2022/03/29 05:42:42;;;;;;;;;;;10.00;1.00;;;;;;5098322;28;19912;-82
2022/03/29 05:45:11;;;;;;;;;;;10.10;1.00;;;;;;5096832;28;19911;-83
2022/03/29 05:50:21;;;;;;;;;;;10.30;99.90;;;;;;5094965;28;19923;-83
2022/03/29 05:52:46;;;;;;;;;;;10.40;99.90;;;;;;5097009;28;19912;-84
2022/03/29 05:55:12;;;;;;;;;;;10.50;99.90;;;;;;5094596;28;19927;-82
2022/03/29 05:57:38;;;;;;;;;;;10.50;40.70;;;;;;5097112;28;19912;-82
2022/03/29 06:00:04;;;;;;;;;;;10.50;11.20;;;;;;5092504;28;19916;-83
2022/03/29 06:02:30;;;;;;;;;;;10.60;1.00;;;;;;5127657;27;19997;-83
2022/03/29 06:04:55;;;;;;;;;;;10.70;1.00;;;;;;5094695;28;20034;-83
2022/03/29 06:07:21;;;;;;;;;;;10.70;1.00;;;;;;5094089;28;19912;-82
2022/03/29 06:09:46;;;;;;;;;;;10.80;1.00;;;;;;5094078;28;19912;-83
2022/03/29 06:12:11;;;;;;;;;;;10.80;1.00;;;;;;5093624;28;20108;-82
2022/03/29 06:14:37;;;;;;;;;;;10.90;1.00;;;;;;5093514;28;19928;-82
2022/03/29 06:17:04;;;;;;;;;;;10.90;1.00;;;;;;5089650;28;19912;-82
2022/03/29 06:19:30;;;;;;;;;;;10.80;1.00;;;;;;5092475;28;20584;-82
2022/03/29 06:21:55;;;;;;;;;;;10.80;1.00;;;;;;5094123;28;19912;-83
2022/03/29 06:24:22;;;;;;;;;;;10.90;1.00;;;;;;5092386;28;19923;-83
2022/03/29 06:26:47;;;;;;;;;;;11.00;1.00;;;;;;5093034;28;20316;-83
2022/03/29 06:29:13;;;;;;;;;;;11.10;1.00;;;;;;5093429;28;19966;-82
2022/03/29 06:31:38;;;;;;;;;;;11.20;1.00;;;;;;5093229;28;20381;-82
2022/03/29 06:34:05;;;;;;;;;;;11.20;1.00;;;;;;5094415;28;19912;-82
2022/03/29 06:36:30;;;;;;;;;;;11.40;1.00;;;;;;5093990;28;20388;-82
2022/03/29 06:38:56;;;;;;;;;;;11.50;1.00;;;;;;5095347;28;19919;-82
2022/03/29 06:41:21;;;;;;;;;;;11.60;1.00;;;;;;5094121;28;19913;-83
2022/03/29 06:43:47;;;;;;;;;;;11.70;1.00;;;;;;5095771;28;20003;-82
2022/03/29 06:46:13;;;;;;;;;;;11.80;1.00;;;;;;5094815;28;19963;-82
2022/03/29 06:48:42;;;;;;;;;;;11.90;1.00;;;;;;5094561;28;20362;-82
2022/03/29 06:51:09;;;;;;;;;;;12.20;1.00;;;;;;5100622;28;20359;-83
2022/03/29 06:53:40;;;;;;;;;;;12.40;1.00;;;;;;5099338;28;19920;-85
2022/03/29 06:56:07;;;;;;;;;;;12.60;1.00;;;;;;5099938;28;19919;-83
2022/03/29 06:58:35;;;;;;;;;;;12.90;1.00;;;;;;5099365;28;19920;-83
2022/03/29 07:01:01;;;;;;;;;;;13.10;99.90;;;;;;5099297;28;20066;-83
2022/03/29 07:03:29;;;;;;;;;;;13.30;99.90;;;;;;5100228;28;19953;-83
2022/03/29 07:05:55;;;;;;;;;;;13.60;99.90;;;;;;5095955;28;19915;-83
2022/03/29 07:08:22;;;;;;;;;;;14.10;99.90;;;;;;5099569;28;20311;-83
2022/03/29 07:13:32;;;;;;;;;;;14.50;99.90;;;;;;5095524;28;20013;-83
2022/03/29 07:15:58;;;;;;;;;;;15.10;99.90;;;;;;5098734;28;19907;-83
2022/03/29 07:18:23;;;;;;;;;;;15.40;99.90;;;;;;5130846;27;19983;-83
2022/03/29 07:20:49;;;;;;;;;;;15.80;99.90;;;;;;5098887;28;19916;-84
2022/03/29 07:23:14;;;;;;;;;;;16.20;99.90;;;;;;5097604;28;19919;-82
2022/03/29 07:25:40;;;;;;;;;;;16.60;99.90;;;;;;5098286;28;19919;-82
2022/03/29 07:28:11;;;;;;;;;;;16.90;99.90;;;;;;5099180;28;19960;-82
2022/03/29 07:30:38;;;;;;;;;;;17.10;99.90;;;;;;5098630;28;19923;-82
2022/03/29 07:33:03;;;;;;;;;;;17.30;99.90;;;;;;5093105;28;19912;-83
2022/03/29 07:35:29;;;;;;;;;;;16.90;99.90;;;;;;5097763;28;19918;-83
2022/03/29 07:37:55;;;;;;;;;;;16.60;99.90;;;;;;5097993;28;20018;-82
2022/03/29 07:40:22;;;;;;;;;;;16.00;99.90;;;;;;5095403;28;20266;-82
2022/03/29 07:42:49;;;;;;;;;;;15.30;99.90;;;;;;5098678;28;19945;-82
2022/03/29 07:45:16;;;;;;;;;;;15.00;99.90;;;;;;5098333;28;19912;-82
2022/03/29 07:47:42;;;;;;;;;;;14.90;99.90;;;;;;5099960;28;19977;-83
2022/03/29 07:50:08;;;;;;;;;;;15.00;99.90;;;;;;5104863;28;19995;-82
2022/03/29 07:52:37;;;;;;;;;;;15.20;99.90;;;;;;5099585;28;19912;-84
2022/03/29 07:55:04;;;;;;;;;;;15.40;99.90;;;;;;5110009;28;19944;-85
2022/03/29 07:57:29;;;;;;;;;;;16.00;99.90;;;;;;5111734;28;20260;-83
2022/03/29 07:59:55;;;;;;;;;;;17.60;99.90;;;;;;5115625;28;19962;-83
2022/03/29 08:02:20;;;;;;;;;;;19.20;99.90;;;;;;5102156;28;19930;-83
2022/03/29 08:04:46;;;;;;;;;;;20.80;99.90;;;;;;5101003;28;19973;-84
2022/03/29 08:07:11;;;;;;;;;;;21.80;99.90;;;;;;5095547;28;19919;-84
2022/03/29 08:09:37;;;;;;;;;;;23.00;99.90;;;;;;5098089;28;19923;-84
2022/03/29 08:12:02;;;;;;;;;;;23.30;99.90;;;;;;5098110;28;19999;-84
2022/03/29 08:14:28;;;;;;;;;;;23.20;99.90;;;;;;5096894;28;20012;-84
2022/03/29 08:16:55;;;;;;;;;;;23.00;99.90;;;;;;5106697;28;19920;-84
2022/03/29 08:19:21;;;;;;;;;;;22.50;99.90;;;;;;5097702;28;19947;-83
2022/03/29 08:21:49;;;;;;;;;;;21.90;99.90;;;;;;5130997;27;19912;-83
2022/03/29 08:24:16;;;;;;;;;;;21.20;99.90;;;;;;5103207;28;19921;-83
2022/03/29 08:26:41;;;;;;;;;;;20.90;99.90;;;;;;5110899;28;19912;-83
2022/03/29 08:29:08;;;;;;;;;;;20.50;99.90;;;;;;5109446;28;19922;-83
2022/03/29 08:31:34;;;;;;;;;;;19.70;99.90;;;;;;5131157;27;19916;-83
2022/03/29 08:33:59;;;;;;;;;;;19.20;99.90;;;;;;5098864;28;19931;-83
2022/03/29 08:36:25;;;;;;;;;;;18.30;99.90;;;;;;5112560;28;19966;-83
2022/03/29 08:38:50;;;;;;;;;;;17.70;99.90;;;;;;5111097;28;19912;-82
2022/03/29 08:41:16;;;;;;;;;;;17.30;99.90;;;;;;5113401;28;19919;-82
2022/03/29 08:43:42;;;;;;;;;;;17.10;99.90;;;;;;5110549;28;19912;-83
2022/03/29 08:46:08;;;;;;;;;;;17.20;99.90;;;;;;5107698;28;19964;-82
2022/03/29 08:48:33;;;;;;;;;;;17.20;99.90;;;;;;5104251;28;19955;-82
2022/03/29 08:50:59;;;;;;;;;;;17.50;99.90;;;;;;5107800;28;19912;-82
2022/03/29 08:53:28;;;;;;;;;;;17.80;99.90;;;;;;5107971;28;19915;-82
2022/03/29 08:55:53;;;;;;;;;;;18.00;99.90;;;;;;5094303;28;19924;-83
2022/03/29 08:58:21;;;;;;;;;;;18.70;99.90;;;;;;5083363;28;20368;-82
2022/03/29 09:00:48;;;;;;;;;;;19.30;99.90;;;;;;5087522;28;19913;-84
2022/03/29 09:03:15;;;;;;;;;;;20.90;99.90;;;;;;5092695;28;19948;-84
2022/03/29 09:05:40;;;;;;;;;;;23.40;99.90;;;;;;5097542;28;19938;-84
2022/03/29 09:08:09;;;;;;;;;;;24.70;99.90;;;;;;5099674;28;20012;-84
2022/03/29 09:10:38;;;;;;;;;;;23.80;99.90;;;;;;5089603;28;19920;-84
2022/03/29 09:13:14;;;;;;;;;;;23.10;99.90;;;;;;5094887;28;19916;-83
2022/03/29 09:15:40;;;;;;;;;;;22.50;99.90;;;;;;5121193;27;19919;-84
2022/03/29 09:18:09;;;;;;;;;;;22.00;99.90;;;;;;5110259;28;19959;-84
2022/03/29 09:20:35;;;;;;;;;;;22.10;99.90;;;;;;5105899;28;19943;-84
2022/03/29 09:23:00;;;;;;;;;;;22.80;99.90;;;;;;5092468;28;20411;-84
2022/03/29 09:25:36;;;;;;;;;;;24.10;99.90;;;;;;5102420;28;19919;-84
2022/03/29 09:28:03;;;;;;;;;;;25.40;99.90;;;;;;5102743;28;19923;-85
2022/03/29 09:30:38;;;;;;;;;;;25.70;99.90;;;;;;5109909;28;19915;-85
2022/03/29 09:33:24;;;;;;;;;;;26.00;99.90;;;;;;5093914;28;19920;-84
2022/03/29 09:35:55;;;;;;;;;;;26.00;99.90;;;;;;5089202;28;20007;-84
2022/03/29 09:38:30;;;;;;;;;;;26.30;99.90;;;;;;5093932;28;19916;-84
2022/03/29 09:40:56;;;;;;;;;;;27.60;99.90;;;;;;5096300;28;19919;-84
2022/03/29 09:43:24;;;;;;;;;;;28.30;99.90;;;;;;5097662;28;19912;-85
2022/03/29 09:45:53;;;;;;;;;;;28.70;99.90;;;;;;5095032;28;19912;-85
2022/03/29 09:48:25;;;;;;;;;;;28.20;99.90;;;;;;5097673;28;19927;-85
2022/03/29 09:50:55;;;;;;;;;;;28.20;99.90;;;;;;5095524;28;19912;-84
2022/03/29 09:53:40;;;;;;;;;;;27.70;99.90;;;;;;5096810;28;20502;-83
2022/03/29 09:56:07;;;;;;;;;;;27.10;99.90;;;;;;5098536;28;19923;-83
2022/03/29 09:58:33;;;;;;;;;;;26.40;99.90;;;;;;5099502;28;20583;-84
2022/03/29 10:00:59;;;;;;;;;;;25.70;99.90;;;;;;5097631;28;19912;-84
2022/03/29 10:03:25;;;;;;;;;;;26.10;99.90;;;;;;5100331;28;19955;-83
2022/03/29 10:05:52;;;;;;;;;;;26.30;99.90;;;;;;5098012;28;19919;-83
2022/03/29 10:11:22;;;;;;;;;;;27.20;99.90;;;;;;5082515;28;19919;-85
2022/03/29 10:13:48;;;;;;;;;;;27.10;99.90;;;;;;5095261;28;19912;-83
2022/03/29 10:16:16;;;;;;;;;;;27.80;99.90;;;;;;5096850;28;19912;-84
2022/03/29 10:18:42;;;;;;;;;;;29.00;99.90;;;;;;5092137;28;19913;-84
2022/03/29 10:21:09;;;;;;;;;;;29.10;99.90;;;;;;5092288;28;20264;-84
2022/03/29 10:23:36;;;;;;;;;;;29.90;99.90;;;;;;5091895;28;19966;-84
2022/03/29 10:26:01;;;;;;;;;;;30.90;99.90;;;;;;5091289;28;20013;-84
2022/03/29 10:28:27;;;;;;;;;;;31.60;99.90;;;;;;5092096;28;19916;-84
2022/03/29 10:30:53;;;;;;;;;;;31.50;99.90;;;;;;5091243;28;20330;-84
2022/03/29 10:33:26;;;;;;;;;;;30.50;99.90;;;;;;5090689;28;19938;-83
2022/03/29 10:36:02;;;;;;;;;;;29.80;99.90;;;;;;5092533;28;19941;-84
2022/03/29 10:38:43;;;;;;;;;;;29.20;99.90;;;;;;5089946;28;19957;-82
2022/03/29 10:41:36;;;;;;;;;;;28.60;99.90;;;;;;5093805;28;19923;-83
2022/03/29 10:44:14;;;;;;;;;;;27.70;99.90;;;;;;5083570;28;19969;-84
2022/03/29 10:46:50;;;;;;;;;;;26.80;99.90;;;;;;5093600;28;19912;-83
2022/03/29 10:49:16;;;;;;;;;;;25.80;99.90;;;;;;5095040;28;19916;-84
2022/03/29 10:51:42;;;;;;;;;;;25.30;99.90;;;;;;5096250;28;19916;-83
2022/03/29 10:54:35;;;;;;;;;;;24.70;99.90;;;;;;5092792;28;19949;-83
2022/03/29 10:57:02;;;;;;;;;;;24.20;99.90;;;;;;5091359;28;19913;-84
2022/03/29 10:59:28;;;;;;;;;;;23.90;99.90;;;;;;5093495;28;20017;-83
2022/03/29 11:02:06;;;;;;;;;;;23.60;99.90;;;;;;5090707;28;19917;-84
2022/03/29 11:04:31;;;;;;;;;;;23.50;99.90;;;;;;5091576;28;20003;-83
2022/03/29 11:07:06;;;;;;;;;;;23.60;99.90;;;;;;5095605;28;19951;-84
2022/03/29 11:09:32;;;;;;;;;;;23.50;99.90;;;;;;5093903;28;19917;-84
2022/03/29 11:11:58;;;;;;;;;;;23.40;99.90;;;;;;5098750;28;19920;-85
2022/03/29 11:14:37;;;;;;;;;;;23.50;99.90;;;;;;5097340;28;19916;-85
2022/03/29 11:17:09;;;;;;;;;;;23.50;99.90;;;;;;5093406;28;20007;-85
2022/03/29 11:19:48;;;;;;;;;;;23.50;99.90;;;;;;5097839;28;19971;-85
2022/03/29 11:22:23;;;;;;;;;;;23.60;99.90;;;;;;5092912;28;19923;-85
2022/03/29 11:24:48;;;;;;;;;;;23.70;99.90;;;;;;5094319;28;19912;-85
2022/03/29 11:27:20;;;;;;;;;;;23.70;99.90;;;;;;5095144;28;20344;-85
2022/03/29 11:29:46;;;;;;;;;;;23.60;99.90;;;;;;5093881;28;20699;-85
2022/03/29 11:32:13;;;;;;;;;;;23.40;99.90;;;;;;5093896;28;19912;-84
2022/03/29 11:34:40;;;;;;;;;;;23.20;99.90;;;;;;5095338;28;19912;-86
2022/03/29 11:37:06;;;;;;;;;;;23.00;99.90;;;;;;5101150;28;21772;-85
2022/03/29 11:39:32;;;;;;;;;;;22.70;99.90;;;;;;5101750;28;19920;-85
2022/03/29 11:41:58;;;;;;;;;;;22.40;99.90;;;;;;5100118;28;19918;-85
2022/03/29 11:44:24;;;;;;;;;;;22.20;99.90;;;;;;5101619;28;19975;-84
2022/03/29 11:46:51;;;;;;;;;;;22.10;99.90;;;;;;5100133;28;19951;-85
2022/03/29 11:49:17;;;;;;;;;;;21.80;99.90;;;;;;5099683;28;19945;-85
2022/03/29 11:51:43;;;;;;;;;;;21.70;99.90;;;;;;5094707;28;19916;-85
2022/03/29 11:54:09;;;;;;;;;;;21.60;99.90;;;;;;5097645;28;20001;-85
2022/03/29 11:56:36;;;;;;;;;;;21.50;99.90;;;;;;5100261;28;19912;-85
2022/03/29 11:59:02;;;;;;;;;;;21.50;99.90;;;;;;5100320;28;19912;-85
2022/03/29 12:01:28;;;;;;;;;;;21.50;99.90;;;;;;5098384;28;19973;-85
2022/03/29 12:03:55;;;;;;;;;;;21.50;99.90;;;;;;5097181;28;19916;-85
2022/03/29 12:06:25;;;;;;;;;;;21.40;99.90;;;;;;5099709;28;19944;-85
2022/03/29 12:08:55;;;;;;;;;;;21.60;99.90;;;;;;5101425;28;19938;-85
2022/03/29 12:11:25;;;;;;;;;;;21.60;99.90;;;;;;5107143;28;19923;-85
2022/03/29 12:14:00;;;;;;;;;;;21.80;99.90;;;;;;5095630;28;19920;-85
2022/03/29 12:16:26;;;;;;;;;;;22.00;99.90;;;;;;5099843;28;19961;-84
2022/03/29 12:18:52;;;;;;;;;;;22.00;99.90;;;;;;5097294;28;19916;-85
2022/03/29 12:21:19;;;;;;;;;;;22.20;99.90;;;;;;5096775;28;19920;-85
2022/03/29 12:23:45;;;;;;;;;;;22.20;99.90;;;;;;5094134;28;19966;-84
2022/03/29 12:26:12;;;;;;;;;;;21.90;99.90;;;;;;5094991;28;19917;-85
2022/03/29 12:28:38;;;;;;;;;;;21.30;99.90;;;;;;5097644;28;19916;-85
2022/03/29 12:31:08;;;;;;;;;;;21.10;99.90;;;;;;5096243;28;20268;-83
2022/03/29 12:33:34;;;;;;;;;;;21.10;99.90;;;;;;5095788;28;19944;-84
2022/03/29 12:36:03;;;;;;;;;;;21.20;99.90;;;;;;5093651;28;19957;-84
2022/03/29 12:38:37;;;;;;;;;;;21.20;99.90;;;;;;5095960;28;20376;-84
2022/03/29 12:41:03;;;;;;;;;;;20.90;99.90;;;;;;5095379;28;19973;-85
2022/03/29 12:43:33;;;;;;;;;;;21.00;99.90;;;;;;5094882;28;20433;-84
2022/03/29 12:45:58;;;;;;;;;;;20.90;99.90;;;;;;5094111;28;20050;-85
2022/03/29 12:48:25;;;;;;;;;;;20.80;99.90;;;;;;5094456;28;19955;-84
2022/03/29 12:50:51;;;;;;;;;;;20.20;99.90;;;;;;5094717;28;19912;-85
2022/03/29 12:53:16;;;;;;;;;;;19.80;99.90;;;;;;5094396;28;19920;-85
2022/03/29 12:55:55;;;;;;;;;;;19.60;99.90;;;;;;5097234;28;19913;-85
2022/03/29 12:58:31;;;;;;;;;;;19.70;99.90;;;;;;5098433;28;20583;-84
2022/03/29 13:00:56;;;;;;;;;;;19.80;99.90;;;;;;5100969;28;19912;-85
2022/03/29 13:03:22;;;;;;;;;;;19.90;99.90;;;;;;5095140;28;19975;-84
2022/03/29 13:05:48;;;;;;;;;;;20.00;99.90;;;;;;5098342;28;19912;-85
2022/03/29 13:08:23;;;;;;;;;;;20.20;99.90;;;;;;5096013;28;20342;-86
2022/03/29 13:10:50;;;;;;;;;;;20.10;99.90;;;;;;5100969;28;19912;-85
2022/03/29 13:13:21;;;;;;;;;;;20.10;99.90;;;;;;5100775;28;19974;-85
2022/03/29 13:15:56;;;;;;;;;;;20.60;99.90;;;;;;5100785;28;19913;-85
2022/03/29 13:18:25;;;;;;;;;;;21.10;99.90;;;;;;5097135;28;20284;-85
2022/03/29 13:21:05;;;;;;;;;;;21.40;99.90;;;;;;5125611;27;19912;-84
2022/03/29 13:23:30;;;;;;;;;;;21.70;99.90;;;;;;5109630;28;19912;-85
2022/03/29 13:25:55;;;;;;;;;;;21.40;99.90;;;;;;5095873;28;20296;-85
2022/03/29 13:28:21;;;;;;;;;;;21.30;99.90;;;;;;5099553;28;19928;-84
2022/03/29 13:30:46;;;;;;;;;;;21.50;99.90;;;;;;5097298;28;20336;-85
2022/03/29 13:33:12;;;;;;;;;;;21.80;99.90;;;;;;5093386;28;19924;-84
2022/03/29 13:35:47;;;;;;;;;;;21.80;99.90;;;;;;5096291;28;19918;-85
2022/03/29 13:38:13;;;;;;;;;;;22.00;99.90;;;;;;5094271;28;19920;-85
2022/03/29 13:40:38;;;;;;;;;;;22.00;99.90;;;;;;5096271;28;19912;-84
2022/03/29 13:43:04;;;;;;;;;;;21.90;99.90;;;;;;5099023;28;20375;-84
2022/03/29 13:45:29;;;;;;;;;;;22.00;99.90;;;;;;5096967;28;19979;-85
2022/03/29 13:47:55;;;;;;;;;;;21.80;99.90;;;;;;5094250;28;20380;-85
2022/03/29 13:50:21;;;;;;;;;;;21.80;99.90;;;;;;5094134;28;19912;-85
2022/03/29 13:52:46;;;;;;;;;;;21.60;99.90;;;;;;5104283;28;19915;-85
2022/03/29 13:55:12;;;;;;;;;;;21.60;99.90;;;;;;5113098;28;19927;-86
2022/03/29 13:57:37;;;;;;;;;;;21.60;99.90;;;;;;5108398;28;19916;-84
2022/03/29 14:00:05;;;;;;;;;;;21.60;99.90;;;;;;5111618;28;19912;-84
2022/03/29 14:02:30;;;;;;;;;;;21.60;99.90;;;;;;5096117;28;19919;-85
2022/03/29 14:04:56;;;;;;;;;;;21.60;99.90;;;;;;5095568;28;20305;-85
2022/03/29 14:07:21;;;;;;;;;;;21.50;99.90;;;;;;5097330;28;19916;-85
2022/03/29 14:09:47;;;;;;;;;;;21.50;99.90;;;;;;5092921;28;19916;-85
2022/03/29 14:12:12;;;;;;;;;;;21.70;99.90;;;;;;5092378;28;20470;-85
2022/03/29 14:14:38;;;;;;;;;;;21.50;99.90;;;;;;5091991;28;19980;-85
2022/03/29 14:17:03;;;;;;;;;;;21.50;99.90;;;;;;5089760;28;19916;-85
2022/03/29 14:19:29;;;;;;;;;;;21.40;99.90;;;;;;5089876;28;19964;-85
2022/03/29 14:21:56;;;;;;;;;;;21.10;99.90;;;;;;5090596;28;19983;-84
2022/03/29 14:24:21;;;;;;;;;;;21.20;99.90;;;;;;5091469;28;19913;-85
2022/03/29 14:26:47;;;;;;;;;;;21.50;99.90;;;;;;5092121;28;19923;-85